Time;durP1;ratioP1;P1;durP2;ratioP2;P2;SDS_P1;SDS_P2;PMS_P1;PMS_P2;Temp;Humidity;BMP_temperature;BMP_pressure;BME280_temperature;BME280_humidity;BME280_pressure;Samples;Min_cycle;Max_cycle;Signal;HPM_P1;HPM_P2
2022/03/30 00:01:17;;;;;;;6.30;5.70;;;13.10;54.80;;;;;;955233;146;27300;-79
2022/03/30 00:03:44;;;;;;;7.17;6.03;;;13.10;54.70;;;;;;957966;146;27427;-78
2022/03/30 00:06:10;;;;;;;6.67;5.90;;;13.10;55.40;;;;;;954810;146;27429;-79
2022/03/30 00:08:37;;;;;;;6.70;6.00;;;13.10;54.60;;;;;;954652;146;27393;-78
2022/03/30 00:11:03;;;;;;;7.93;5.80;;;13.10;54.60;;;;;;954607;146;27310;-78
2022/03/30 00:13:30;;;;;;;6.03;5.40;;;13.00;54.60;;;;;;955836;146;27353;-79
2022/03/30 00:15:57;;;;;;;6.50;5.50;;;13.10;54.60;;;;;;956790;148;27454;-79
2022/03/30 00:18:23;;;;;;;5.83;5.27;;;13.00;54.60;;;;;;955362;149;27394;-79
2022/03/30 00:20:50;;;;;;;5.83;5.23;;;13.00;54.60;;;;;;956540;149;27369;-78
2022/03/30 00:23:16;;;;;;;7.33;5.63;;;13.00;54.60;;;;;;958420;148;27324;-79
2022/03/30 00:25:43;;;;;;;8.27;5.73;;;13.00;54.60;;;;;;956533;148;27372;-79
2022/03/30 00:28:09;;;;;;;7.00;6.10;;;13.10;54.60;;;;;;956574;149;27437;-77
2022/03/30 00:30:36;;;;;;;6.33;5.73;;;13.00;54.50;;;;;;957386;149;27437;-77
2022/03/30 00:33:03;;;;;;;6.80;5.10;;;13.00;54.60;;;;;;956124;149;27273;-77
2022/03/30 00:35:29;;;;;;;5.63;5.10;;;13.00;54.50;;;;;;956594;148;27352;-77
2022/03/30 00:37:56;;;;;;;6.77;5.37;;;13.00;54.50;;;;;;955424;149;27345;-77
2022/03/30 00:40:22;;;;;;;7.53;6.13;;;13.00;54.60;;;;;;956524;149;27416;-77
2022/03/30 00:42:49;;;;;;;7.13;6.17;;;13.00;54.60;;;;;;956743;149;27379;-77
2022/03/30 00:45:16;;;;;;;6.10;5.50;;;13.00;54.60;;;;;;955507;149;27330;-77
2022/03/30 00:47:42;;;;;;;8.77;6.13;;;13.00;54.60;;;;;;956794;148;27767;-77
2022/03/30 00:50:09;;;;;;;6.37;5.70;;;13.00;54.60;;;;;;956764;148;27464;-77
2022/03/30 00:52:35;;;;;;;7.40;6.60;;;12.90;54.50;;;;;;955937;149;27377;-77
2022/03/30 00:55:02;;;;;;;10.07;5.93;;;12.90;54.60;;;;;;958047;149;27295;-77
2022/03/30 00:57:29;;;;;;;10.07;6.70;;;12.90;54.60;;;;;;956293;149;27409;-77
2022/03/30 00:59:55;;;;;;;8.07;5.70;;;12.90;54.60;;;;;;955006;148;27394;-77
2022/03/30 01:02:23;;;;;;;6.93;6.17;;;12.80;54.50;;;;;;956110;148;27327;-77
2022/03/30 01:04:48;;;;;;;6.50;5.77;;;12.80;54.50;;;;;;955458;148;27336;-77
2022/03/30 01:07:15;;;;;;;8.43;6.00;;;12.80;54.50;;;;;;955828;148;27761;-77
2022/03/30 01:09:41;;;;;;;6.07;5.27;;;12.80;54.50;;;;;;956172;149;27373;-77
2022/03/30 01:12:10;;;;;;;6.40;5.70;;;12.70;54.60;;;;;;956027;148;27309;-77
2022/03/30 01:14:36;;;;;;;9.03;5.87;;;12.70;54.60;;;;;;956594;148;27380;-77
2022/03/30 01:17:03;;;;;;;7.30;5.67;;;12.70;54.60;;;;;;955184;148;27278;-77
2022/03/30 01:19:29;;;;;;;8.67;6.50;;;12.70;54.70;;;;;;954053;148;27424;-77
2022/03/30 01:21:56;;;;;;;9.27;5.87;;;12.60;54.70;;;;;;955706;149;27397;-77
2022/03/30 01:24:22;;;;;;;8.57;6.50;;;12.60;54.80;;;;;;957133;149;27457;-77
2022/03/30 01:26:49;;;;;;;8.67;6.93;;;12.60;54.90;;;;;;956054;148;27304;-77
2022/03/30 01:34:45;;;;;;;9.53;6.20;;;12.50;54.90;;;;;;956482;149;27574;-77
2022/03/30 01:37:12;;;;;;;7.47;6.53;;;12.50;55.10;;;;;;956432;149;27367;-77
2022/03/30 01:39:38;;;;;;;8.03;6.53;;;12.40;55.20;;;;;;958692;149;27409;-77
2022/03/30 01:42:05;;;;;;;10.07;7.37;;;12.40;55.90;;;;;;957555;148;27312;-77
2022/03/30 01:44:31;;;;;;;6.40;5.80;;;12.40;55.30;;;;;;955915;148;27400;-77
2022/03/30 01:46:58;;;;;;;9.07;7.13;;;12.40;55.40;;;;;;955993;149;27426;-77
2022/03/30 01:49:24;;;;;;;9.97;6.60;;;12.40;55.50;;;;;;958533;149;27366;-77
2022/03/30 01:51:51;;;;;;;7.10;6.00;;;12.40;55.60;;;;;;954745;149;27318;-77
2022/03/30 01:54:18;;;;;;;8.93;7.10;;;12.40;55.60;;;;;;954627;149;27471;-77
2022/03/30 01:56:44;;;;;;;6.97;6.07;;;12.40;55.60;;;;;;956947;149;27434;-77
2022/03/30 01:59:11;;;;;;;8.43;6.20;;;12.40;55.60;;;;;;956130;149;27344;-77
2022/03/30 02:01:37;;;;;;;8.90;7.47;;;12.50;55.70;;;;;;956765;149;27450;-77
2022/03/30 02:04:06;;;;;;;9.13;7.37;;;12.50;55.00;;;;;;956476;149;27333;-75
2022/03/30 02:06:31;;;;;;;8.63;7.10;;;12.50;55.70;;;;;;956104;148;27388;-74
2022/03/30 02:08:57;;;;;;;8.23;7.40;;;12.50;55.60;;;;;;954062;149;27418;-75
2022/03/30 02:11:26;;;;;;;9.67;8.37;;;12.50;55.60;;;;;;954314;148;27449;-75
2022/03/30 02:13:50;;;;;;;8.33;7.47;;;12.50;55.60;;;;;;954298;148;27373;-74
2022/03/30 02:16:17;;;;;;;9.87;7.63;;;12.50;55.70;;;;;;955337;146;27446;-74
2022/03/30 02:18:44;;;;;;;9.63;8.57;;;12.50;55.70;;;;;;956352;146;27289;-74
2022/03/30 02:21:10;;;;;;;8.33;7.50;;;12.60;55.70;;;;;;956072;146;27342;-75
2022/03/30 02:23:37;;;;;;;9.53;8.57;;;12.60;55.70;;;;;;956081;146;27359;-77
2022/03/30 02:26:03;;;;;;;9.67;7.50;;;12.50;55.70;;;;;;954596;146;27497;-74
2022/03/30 02:28:30;;;;;;;9.73;8.63;;;12.60;55.80;;;;;;952981;146;27300;-74
2022/03/30 02:30:57;;;;;;;8.73;7.73;;;12.50;55.80;;;;;;954129;146;27466;-74
2022/03/30 02:33:23;;;;;;;10.93;9.50;;;12.50;55.90;;;;;;954869;146;27638;-75
2022/03/30 02:35:50;;;;;;;9.40;8.33;;;12.60;56.00;;;;;;955044;146;27429;-77
2022/03/30 02:38:16;;;;;;;11.80;9.27;;;12.50;55.90;;;;;;955593;146;27328;-74
2022/03/30 02:40:43;;;;;;;10.33;9.03;;;12.60;56.00;;;;;;955099;146;27332;-74
2022/03/30 02:43:10;;;;;;;11.30;8.90;;;12.60;56.10;;;;;;956144;146;27752;-74
2022/03/30 02:45:36;;;;;;;12.50;9.63;;;12.60;56.10;;;;;;956023;146;27895;-75
2022/03/30 02:50:51;;;;;;;12.53;9.47;;;12.60;56.00;;;;;;955170;146;27949;-74
2022/03/30 02:53:17;;;;;;;12.17;10.00;;;12.60;56.00;;;;;;955068;146;27882;-74
2022/03/30 02:55:43;;;;;;;11.07;9.83;;;12.60;56.10;;;;;;956653;146;27397;-75
2022/03/30 02:58:10;;;;;;;12.23;9.90;;;12.60;56.20;;;;;;953047;146;27316;-76
2022/03/30 03:00:37;;;;;;;15.13;9.67;;;12.60;56.30;;;;;;954583;146;27352;-76
2022/03/30 03:03:03;;;;;;;13.67;10.70;;;12.60;56.30;;;;;;957926;146;27343;-73
2022/03/30 03:05:33;;;;;;;12.93;9.83;;;12.50;56.30;;;;;;954212;146;27350;-74
2022/03/30 03:08:00;;;;;;;13.00;9.27;;;12.60;56.40;;;;;;953766;146;27409;-75
2022/03/30 03:10:26;;;;;;;13.10;10.97;;;12.60;56.50;;;;;;952527;146;27409;-74
2022/03/30 03:12:53;;;;;;;13.07;10.40;;;12.60;56.60;;;;;;954913;146;27337;-75
2022/03/30 03:15:19;;;;;;;13.07;11.10;;;12.50;56.70;;;;;;952751;146;27752;-74
2022/03/30 03:17:46;;;;;;;13.77;11.77;;;12.50;56.80;;;;;;958023;149;27458;-75
2022/03/30 03:20:13;;;;;;;14.17;11.73;;;12.50;57.00;;;;;;956598;149;27293;-74
2022/03/30 03:22:39;;;;;;;15.63;11.60;;;12.50;57.10;;;;;;955427;149;27307;-74
2022/03/30 03:25:06;;;;;;;15.73;12.57;;;12.50;57.30;;;;;;955859;148;27365;-75
2022/03/30 03:27:32;;;;;;;13.17;11.80;;;12.50;57.30;;;;;;955348;148;27621;-76
2022/03/30 03:29:59;;;;;;;15.10;11.60;;;12.50;57.50;;;;;;955963;149;27397;-75
2022/03/30 03:32:26;;;;;;;13.97;11.53;;;12.50;57.60;;;;;;956058;149;27344;-74
2022/03/30 03:34:52;;;;;;;13.97;12.10;;;12.50;57.80;;;;;;957520;148;27784;-74
2022/03/30 03:37:19;;;;;;;17.83;13.07;;;12.50;58.00;;;;;;958462;148;27304;-76
2022/03/30 03:39:45;;;;;;;15.50;13.03;;;12.50;58.00;;;;;;957153;148;27454;-74
2022/03/30 03:42:13;;;;;;;14.77;12.50;;;12.50;58.30;;;;;;957237;149;27339;-74
2022/03/30 03:44:39;;;;;;;15.03;12.30;;;12.50;58.30;;;;;;956835;149;27769;-74
2022/03/30 03:47:07;;;;;;;16.13;14.03;;;12.40;58.30;;;;;;957840;149;27389;-75
2022/03/30 03:49:32;;;;;;;15.43;13.10;;;12.40;58.30;;;;;;956030;149;27456;-75
2022/03/30 03:51:58;;;;;;;16.20;13.50;;;12.40;58.50;;;;;;957100;148;27440;-77
2022/03/30 03:54:25;;;;;;;15.07;12.27;;;12.40;59.30;;;;;;955463;149;27858;-75
2022/03/30 03:56:52;;;;;;;17.17;13.03;;;12.30;58.70;;;;;;956021;149;27301;-75
2022/03/30 03:59:18;;;;;;;15.47;12.73;;;12.30;58.80;;;;;;955726;149;27341;-74
2022/03/30 04:01:45;;;;;;;15.33;13.50;;;12.30;59.00;;;;;;957252;148;27342;-74
2022/03/30 04:04:11;;;;;;;17.13;13.77;;;12.20;59.30;;;;;;955773;149;27592;-77
2022/03/30 04:06:38;;;;;;;17.03;13.37;;;12.20;59.50;;;;;;955151;149;27363;-74
2022/03/30 04:09:04;;;;;;;16.77;13.80;;;12.20;59.70;;;;;;954097;149;28119;-74
2022/03/30 04:11:31;;;;;;;15.77;13.83;;;12.10;59.60;;;;;;956790;149;27256;-74
2022/03/30 04:13:58;;;;;;;16.47;13.43;;;12.10;59.60;;;;;;957280;149;27293;-75
2022/03/30 04:16:24;;;;;;;18.53;14.90;;;12.10;59.70;;;;;;958089;146;27526;-78
2022/03/30 04:18:51;;;;;;;17.73;14.97;;;12.00;59.70;;;;;;953385;146;27364;-74
2022/03/30 04:21:17;;;;;;;20.87;16.30;;;12.00;59.80;;;;;;955331;146;27326;-74
2022/03/30 04:23:44;;;;;;;20.00;15.67;;;11.90;59.70;;;;;;956016;146;27411;-76
2022/03/30 04:26:11;;;;;;;17.07;14.40;;;11.90;59.80;;;;;;954031;146;27327;-75
2022/03/30 04:28:46;;;;;;;18.37;14.33;;;11.80;60.00;;;;;;956679;146;27328;-77
2022/03/30 04:31:04;;;;;;;18.33;15.73;;;11.70;59.90;;;;;;953190;146;27363;-74
2022/03/30 04:33:30;;;;;;;18.37;14.43;;;11.70;60.00;;;;;;954053;146;27292;-74
2022/03/30 04:35:57;;;;;;;18.67;15.30;;;11.60;60.00;;;;;;954136;146;27373;-75
2022/03/30 04:38:24;;;;;;;18.27;14.87;;;11.60;60.30;;;;;;955665;146;27325;-74
2022/03/30 04:40:50;;;;;;;18.57;14.77;;;11.50;60.20;;;;;;956400;146;27425;-75
2022/03/30 04:43:17;;;;;;;18.10;16.00;;;11.40;60.50;;;;;;954156;146;27395;-75
2022/03/30 04:45:43;;;;;;;27.53;17.30;;;11.40;60.70;;;;;;954772;147;28714;-74
2022/03/30 04:48:10;;;;;;;19.80;17.10;;;11.30;61.10;;;;;;954981;146;27262;-74
2022/03/30 04:50:37;;;;;;;20.43;15.93;;;11.30;61.00;;;;;;953900;146;27757;-74
2022/03/30 04:53:03;;;;;;;19.20;15.53;;;11.20;61.10;;;;;;952831;146;27345;-77
2022/03/30 04:55:31;;;;;;;21.87;15.20;;;11.10;61.40;;;;;;954927;146;27425;-75
2022/03/30 04:57:56;;;;;;;20.30;15.03;;;11.10;61.60;;;;;;955944;146;27391;-75
2022/03/30 05:00:23;;;;;;;18.60;15.87;;;11.10;61.70;;;;;;952909;146;28656;-77
2022/03/30 05:02:50;;;;;;;19.33;15.93;;;11.00;61.70;;;;;;955994;147;27300;-74
2022/03/30 05:05:16;;;;;;;19.53;14.87;;;11.00;62.10;;;;;;954638;146;27280;-76
2022/03/30 05:07:43;;;;;;;18.47;16.43;;;10.90;62.20;;;;;;953390;146;27437;-74
2022/03/30 05:10:09;;;;;;;20.87;16.47;;;10.90;62.50;;;;;;954172;146;28250;-76
2022/03/30 05:12:36;;;;;;;22.07;17.30;;;10.90;62.70;;;;;;954447;146;27386;-74
2022/03/30 05:15:02;;;;;;;19.60;15.97;;;10.90;62.90;;;;;;957174;146;27261;-75
2022/03/30 05:17:29;;;;;;;21.77;16.80;;;10.90;63.00;;;;;;955270;146;27480;-75
2022/03/30 05:19:56;;;;;;;21.20;16.30;;;10.90;63.00;;;;;;957414;149;27347;-74
2022/03/30 05:22:22;;;;;;;22.20;17.33;;;10.90;63.20;;;;;;956082;149;27424;-75
2022/03/30 05:24:49;;;;;;;22.10;16.73;;;10.90;63.30;;;;;;955371;149;27315;-74
2022/03/30 05:27:15;;;;;;;18.57;15.93;;;10.80;63.30;;;;;;955187;148;27300;-75
2022/03/30 05:29:42;;;;;;;22.73;16.73;;;10.80;63.30;;;;;;956423;149;27279;-77
2022/03/30 05:32:09;;;;;;;22.53;17.17;;;10.90;63.70;;;;;;956976;149;27332;-77
2022/03/30 05:34:35;;;;;;;22.43;16.87;;;10.80;63.80;;;;;;955842;149;27278;-74
2022/03/30 05:37:03;;;;;;;21.03;16.07;;;10.80;64.10;;;;;;955930;148;27329;-74
2022/03/30 05:39:30;;;;;;;19.03;15.70;;;10.80;64.50;;;;;;958505;149;27296;-76
2022/03/30 05:41:55;;;;;;;19.57;16.00;;;10.80;64.60;;;;;;957293;149;27397;-75
2022/03/30 05:44:22;;;;;;;21.07;16.77;;;10.80;64.70;;;;;;956316;148;27383;-74
2022/03/30 05:46:48;;;;;;;20.97;16.57;;;10.80;65.00;;;;;;956003;149;27881;-75
2022/03/30 05:49:16;;;;;;;25.03;16.97;;;10.80;65.80;;;;;;955689;149;27345;-74
2022/03/30 05:51:42;;;;;;;21.57;16.57;;;10.80;65.30;;;;;;955695;148;27271;-74
2022/03/30 05:54:08;;;;;;;21.47;17.97;;;10.80;65.40;;;;;;955776;149;27415;-74
2022/03/30 05:59:19;;;;;;;21.83;16.37;;;10.70;65.70;;;;;;956249;149;28275;-74
2022/03/30 06:01:46;;;;;;;22.80;17.53;;;10.70;65.50;;;;;;956592;148;27366;-74
2022/03/30 06:04:12;;;;;;;22.33;17.23;;;10.70;65.60;;;;;;956944;149;27398;-74
2022/03/30 06:06:39;;;;;;;24.50;18.83;;;10.70;66.00;;;;;;957604;149;27316;-75
2022/03/30 06:09:07;;;;;;;23.97;18.57;;;10.70;65.70;;;;;;957814;149;27324;-76
2022/03/30 06:11:32;;;;;;;22.43;18.57;;;10.70;65.80;;;;;;955173;149;27299;-74
2022/03/30 06:13:59;;;;;;;25.57;18.93;;;10.70;66.00;;;;;;957544;148;27249;-75
2022/03/30 06:16:25;;;;;;;21.57;17.17;;;10.70;66.30;;;;;;956463;148;27387;-75
2022/03/30 06:18:52;;;;;;;23.70;18.33;;;10.70;66.40;;;;;;957309;148;27326;-76
2022/03/30 06:21:19;;;;;;;23.30;17.80;;;10.60;66.60;;;;;;956743;148;27361;-74
2022/03/30 06:23:45;;;;;;;22.10;18.87;;;10.60;66.70;;;;;;954610;148;28590;-75
2022/03/30 06:26:12;;;;;;;24.27;18.37;;;10.60;66.70;;;;;;956237;149;27332;-75
2022/03/30 06:28:38;;;;;;;24.17;18.60;;;10.60;66.70;;;;;;957361;148;27403;-74
2022/03/30 06:31:05;;;;;;;21.33;17.90;;;10.60;67.10;;;;;;955574;148;27301;-75
2022/03/30 06:33:31;;;;;;;24.77;19.50;;;10.60;67.30;;;;;;956671;149;27697;-74
2022/03/30 06:35:58;;;;;;;22.37;17.33;;;10.60;67.20;;;;;;956218;149;27336;-75
2022/03/30 06:38:25;;;;;;;23.73;19.07;;;10.60;67.10;;;;;;955352;149;27268;-74
2022/03/30 06:40:51;;;;;;;24.67;19.23;;;10.60;67.30;;;;;;955043;149;27301;-74
2022/03/30 06:43:18;;;;;;;25.20;20.40;;;10.60;67.20;;;;;;955129;149;27289;-75
2022/03/30 06:45:46;;;;;;;20.50;17.27;;;10.60;67.30;;;;;;958652;149;27334;-77
2022/03/30 06:48:11;;;;;;;28.00;20.27;;;10.60;67.30;;;;;;955023;149;27341;-74
2022/03/30 06:50:38;;;;;;;24.70;19.83;;;10.60;67.40;;;;;;954201;149;27304;-75
2022/03/30 06:53:06;;;;;;;30.80;22.30;;;10.50;67.40;;;;;;956414;148;27389;-76
2022/03/30 06:55:31;;;;;;;29.20;20.47;;;10.50;67.30;;;;;;957226;149;27317;-75
2022/03/30 06:57:57;;;;;;;26.87;20.20;;;10.50;67.80;;;;;;955910;149;27364;-74
2022/03/30 07:00:24;;;;;;;28.23;21.30;;;10.50;67.60;;;;;;955928;148;27478;-74
2022/03/30 07:02:52;;;;;;;24.13;20.03;;;10.40;67.90;;;;;;954764;149;27343;-75
2022/03/30 07:05:17;;;;;;;24.67;19.20;;;10.40;68.40;;;;;;957256;149;27304;-74
2022/03/30 07:10:31;;;;;;;26.27;20.30;;;10.40;68.80;;;;;;954570;149;27393;-75
2022/03/30 07:12:55;;;;;;;30.10;22.07;;;10.30;68.70;;;;;;955418;149;27356;-74
2022/03/30 07:15:21;;;;;;;29.27;22.73;;;10.30;68.90;;;;;;956718;149;27730;-74
2022/03/30 07:17:51;;;;;;;29.30;21.37;;;10.30;68.80;;;;;;955039;148;27318;-75
2022/03/30 07:20:17;;;;;;;27.20;21.83;;;10.30;69.00;;;;;;956195;149;27333;-75
2022/03/30 07:22:44;;;;;;;31.37;22.87;;;10.30;69.20;;;;;;956364;149;27343;-74
2022/03/30 07:25:10;;;;;;;26.37;21.93;;;10.30;69.30;;;;;;956881;149;27851;-74
2022/03/30 07:27:42;;;;;;;28.33;21.60;;;10.30;69.30;;;;;;957946;149;27777;-74
2022/03/30 07:30:09;;;;;;;28.40;21.03;;;10.30;69.30;;;;;;956025;148;27783;-77
2022/03/30 07:32:39;;;;;;;26.37;20.97;;;10.30;69.20;;;;;;957505;149;27324;-75
2022/03/30 07:35:05;;;;;;;28.97;20.40;;;10.30;69.80;;;;;;956929;149;27394;-74
2022/03/30 07:37:31;;;;;;;30.67;21.70;;;10.30;70.00;;;;;;955869;149;27280;-74
2022/03/30 07:39:59;;;;;;;33.17;22.90;;;10.30;69.80;;;;;;957378;149;27940;-74
2022/03/30 07:42:25;;;;;;;28.17;20.90;;;10.30;70.10;;;;;;955629;149;27348;-74
2022/03/30 07:44:51;;;;;;;26.73;21.37;;;10.30;69.80;;;;;;956050;148;27468;-75
2022/03/30 07:47:18;;;;;;;27.17;21.50;;;10.30;69.80;;;;;;955112;148;28024;-75
2022/03/30 07:49:44;;;;;;;32.07;22.53;;;10.30;70.40;;;;;;954235;148;27937;-75
2022/03/30 07:52:11;;;;;;;28.93;21.57;;;10.30;70.30;;;;;;954573;148;27314;-74
2022/03/30 07:54:38;;;;;;;26.27;21.90;;;10.30;70.40;;;;;;955964;148;27373;-77
2022/03/30 07:57:04;;;;;;;28.83;22.53;;;10.30;70.40;;;;;;956944;149;27477;-74
2022/03/30 07:59:31;;;;;;;30.40;22.13;;;10.30;70.60;;;;;;958185;149;27353;-75
2022/03/30 08:01:58;;;;;;;28.63;22.13;;;10.30;70.40;;;;;;956342;149;27433;-75
2022/03/30 08:04:24;;;;;;;29.30;22.03;;;10.40;70.70;;;;;;956299;148;27689;-74
2022/03/30 08:06:51;;;;;;;29.43;23.50;;;10.40;70.80;;;;;;954765;149;27345;-75
2022/03/30 08:09:17;;;;;;;32.13;22.77;;;10.40;71.40;;;;;;955320;149;27354;-74
2022/03/30 08:11:44;;;;;;;31.47;24.20;;;10.40;71.20;;;;;;956105;149;27360;-74
2022/03/30 08:14:11;;;;;;;35.10;25.90;;;10.40;71.40;;;;;;956886;148;27374;-74
2022/03/30 08:16:37;;;;;;;31.13;24.17;;;10.50;71.20;;;;;;954727;149;27800;-75
2022/03/30 08:19:04;;;;;;;28.43;22.80;;;10.50;71.50;;;;;;955273;146;27515;-74
2022/03/30 08:24:15;;;;;;;31.60;24.27;;;10.50;71.40;;;;;;952816;146;27427;-76
2022/03/30 08:26:41;;;;;;;31.47;24.13;;;10.60;71.50;;;;;;953245;146;27429;-75
2022/03/30 08:29:08;;;;;;;28.90;22.20;;;10.60;71.80;;;;;;955173;146;27839;-76
2022/03/30 08:31:35;;;;;;;28.57;24.03;;;10.60;71.70;;;;;;955079;146;27341;-75
2022/03/30 08:34:01;;;;;;;28.07;21.63;;;10.60;71.70;;;;;;955404;146;27479;-74
2022/03/30 08:36:30;;;;;;;31.83;24.00;;;10.70;72.00;;;;;;953908;146;27316;-75
2022/03/30 08:38:54;;;;;;;31.33;24.50;;;10.70;71.80;;;;;;952648;146;27300;-76
2022/03/30 08:41:21;;;;;;;31.10;24.03;;;10.70;71.80;;;;;;953205;146;27929;-74
2022/03/30 08:43:48;;;;;;;33.27;25.60;;;10.80;71.70;;;;;;955717;146;27353;-74
2022/03/30 08:46:14;;;;;;;36.30;27.63;;;10.80;72.00;;;;;;956566;147;27405;-74
2022/03/30 08:48:41;;;;;;;32.47;23.77;;;10.80;72.10;;;;;;954358;146;27354;-74
2022/03/30 08:51:07;;;;;;;31.77;24.60;;;10.80;72.10;;;;;;953127;146;27664;-76
2022/03/30 08:53:34;;;;;;;30.03;23.77;;;10.80;71.90;;;;;;955210;146;27366;-78
2022/03/30 08:56:00;;;;;;;32.83;24.07;;;10.90;72.20;;;;;;955938;146;27464;-75
2022/03/30 08:58:27;;;;;;;30.63;22.47;;;10.90;72.40;;;;;;957366;146;27321;-75
2022/03/30 09:00:54;;;;;;;30.03;23.40;;;11.00;72.80;;;;;;955092;146;27308;-76
2022/03/30 09:03:20;;;;;;;28.23;23.17;;;11.00;72.70;;;;;;954984;146;27291;-76
2022/03/30 09:05:47;;;;;;;26.23;20.93;;;11.10;72.80;;;;;;953150;146;27377;-78
2022/03/30 09:08:18;;;;;;;26.73;21.00;;;11.10;72.90;;;;;;955675;146;27336;-75
2022/03/30 09:10:43;;;;;;;28.10;22.73;;;11.20;72.90;;;;;;954354;146;27820;-75
2022/03/30 09:13:10;;;;;;;28.67;21.10;;;11.30;72.70;;;;;;954041;146;27387;-76
2022/03/30 09:15:36;;;;;;;27.67;21.67;;;11.30;72.70;;;;;;953932;146;27344;-76
2022/03/30 09:18:03;;;;;;;27.73;22.10;;;11.40;72.80;;;;;;955766;146;27328;-77
2022/03/30 09:20:29;;;;;;;23.27;19.83;;;11.50;73.30;;;;;;954816;146;28670;-75
2022/03/30 09:22:56;;;;;;;22.90;19.17;;;11.60;73.50;;;;;;955071;146;27446;-75
2022/03/30 09:25:25;;;;;;;24.10;20.97;;;11.70;73.50;;;;;;953453;146;27364;-75
2022/03/30 09:27:52;;;;;;;25.90;20.93;;;11.90;73.20;;;;;;956010;146;27442;-78
2022/03/30 09:30:19;;;;;;;27.07;20.73;;;12.00;72.80;;;;;;954763;146;27340;-75
2022/03/30 09:32:45;;;;;;;25.80;21.13;;;12.10;72.70;;;;;;954070;146;27349;-76
2022/03/30 09:35:30;;;;;;;24.03;19.43;;;12.20;72.60;;;;;;955392;146;27359;-77
2022/03/30 09:38:02;;;;;;;26.30;21.53;;;12.40;72.70;;;;;;954887;146;27317;-76
2022/03/30 09:40:35;;;;;;;23.93;20.13;;;12.50;72.50;;;;;;957321;146;27433;-78
2022/03/30 09:43:13;;;;;;;24.50;19.90;;;12.70;72.50;;;;;;944718;148;27433;-75
2022/03/30 09:45:40;;;;;;;24.50;20.70;;;12.90;73.30;;;;;;947381;147;27299;-77
2022/03/30 09:48:12;;;;;;;21.73;19.00;;;13.10;72.80;;;;;;950148;147;27297;-76
2022/03/30 09:50:45;;;;;;;21.10;18.73;;;13.30;73.10;;;;;;955624;145;27272;-76
2022/03/30 09:53:11;;;;;;;22.40;18.87;;;13.50;72.80;;;;;;958893;145;27347;-76
2022/03/30 09:55:38;;;;;;;22.40;19.70;;;13.80;72.70;;;;;;961248;144;27314;-76
2022/03/30 09:58:07;;;;;;;21.90;19.57;;;14.00;72.30;;;;;;957724;144;27463;-76
2022/03/30 10:00:34;;;;;;;21.63;18.80;;;14.20;71.30;;;;;;939131;148;27300;-75
2022/03/30 10:03:01;;;;;;;22.30;18.87;;;14.40;70.50;;;;;;949480;147;27381;-79
2022/03/30 10:05:28;;;;;;;23.37;18.97;;;14.60;70.00;;;;;;950384;147;27366;-75
2022/03/30 10:07:55;;;;;;;19.13;17.00;;;14.70;69.40;;;;;;942503;148;27291;-76
2022/03/30 10:10:20;;;;;;;19.63;17.53;;;14.70;69.00;;;;;;940902;149;27731;-75
2022/03/30 10:12:47;;;;;;;21.67;19.20;;;14.80;68.80;;;;;;938839;149;27483;-76
2022/03/30 10:15:13;;;;;;;20.97;17.77;;;14.90;68.20;;;;;;940532;148;27744;-76
2022/03/30 10:17:40;;;;;;;21.57;17.83;;;14.90;67.90;;;;;;941620;148;27346;-75
2022/03/30 10:20:07;;;;;;;20.13;17.20;;;14.90;67.90;;;;;;962773;144;27370;-75
2022/03/30 10:22:57;;;;;;;20.13;17.83;;;15.00;67.80;;;;;;958366;146;27299;-75
2022/03/30 10:25:33;;;;;;;19.33;17.23;;;15.00;67.40;;;;;;963551;147;27726;-77
2022/03/30 10:28:17;;;;;;;20.40;18.07;;;15.10;68.10;;;;;;964296;147;27339;-77
2022/03/30 10:30:44;;;;;;;20.20;18.00;;;15.10;67.10;;;;;;960541;147;27344;-76
2022/03/30 10:33:11;;;;;;;21.57;17.93;;;15.20;67.40;;;;;;964526;147;27402;-76
2022/03/30 10:35:51;;;;;;;18.95;16.90;;;15.30;67.50;;;;;;962658;147;27399;-77
2022/03/30 10:38:15;;;;;;;19.40;16.17;;;15.40;67.80;;;;;;963326;147;27343;-76
2022/03/30 10:40:42;;;;;;;17.67;15.72;;;15.50;67.50;;;;;;966524;146;27424;-76
2022/03/30 10:43:27;;;;;;;18.37;16.10;;;15.60;66.90;;;;;;963837;146;27325;-77
2022/03/30 10:46:02;;;;;;;17.30;15.23;;;15.70;66.50;;;;;;963787;146;27368;-77
2022/03/30 10:48:29;;;;;;;18.97;15.43;;;15.80;65.80;;;;;;965199;146;27305;-76
2022/03/30 10:51:01;;;;;;;18.70;15.72;;;15.90;65.30;;;;;;964202;147;27380;-76
2022/03/30 10:53:38;;;;;;;17.73;15.83;;;15.90;64.80;;;;;;966237;147;27330;-76
2022/03/30 10:56:14;;;;;;;18.17;16.00;;;15.90;63.90;;;;;;963872;147;27274;-76
2022/03/30 10:58:38;;;;;;;18.53;15.60;;;15.80;63.60;;;;;;965307;147;27321;-76
2022/03/30 11:01:14;;;;;;;17.40;15.53;;;15.70;63.70;;;;;;960713;147;27309;-76
2022/03/30 11:04:05;;;;;;;17.63;15.83;;;15.70;63.50;;;;;;963703;146;27386;-77
2022/03/30 11:06:31;;;;;;;16.53;14.80;;;15.60;64.10;;;;;;963478;148;27214;-76
2022/03/30 11:08:58;;;;;;;16.93;15.10;;;15.60;64.30;;;;;;962318;147;27719;-78
2022/03/30 11:11:24;;;;;;;17.57;14.97;;;15.60;64.50;;;;;;963390;148;27303;-76
2022/03/30 11:13:53;;;;;;;15.97;14.33;;;15.70;64.50;;;;;;962352;147;27478;-77
2022/03/30 11:16:20;;;;;;;15.97;14.27;;;15.70;64.30;;;;;;955843;148;27306;-76
2022/03/30 11:18:58;;;;;;;15.70;14.03;;;15.80;64.00;;;;;;964909;147;27366;-76
2022/03/30 11:21:24;;;;;;;15.93;14.10;;;15.80;63.60;;;;;;960999;147;27363;-78
2022/03/30 11:23:58;;;;;;;18.97;15.20;;;15.80;63.10;;;;;;958824;148;27412;-75
2022/03/30 11:26:23;;;;;;;15.80;14.17;;;15.80;62.70;;;;;;957526;148;27308;-75
2022/03/30 11:28:50;;;;;;;18.00;15.97;;;15.70;62.60;;;;;;960486;148;27426;-76
2022/03/30 11:31:23;;;;;;;16.10;14.43;;;15.60;62.50;;;;;;958499;148;27347;-76
2022/03/30 11:34:27;;;;;;;17.50;15.50;;;15.60;62.50;;;;;;958562;148;27329;-78
2022/03/30 11:36:53;;;;;;;15.83;14.20;;;15.50;62.30;;;;;;958105;148;27286;-77
2022/03/30 11:39:20;;;;;;;15.47;13.90;;;15.40;62.60;;;;;;958734;146;27271;-76
2022/03/30 11:41:56;;;;;;;15.47;13.67;;;15.40;62.80;;;;;;958274;148;27398;-75
2022/03/30 11:47:06;;;;;;;15.27;13.37;;;15.40;63.20;;;;;;959989;148;27359;-76
2022/03/30 11:49:33;;;;;;;16.53;14.77;;;15.40;63.40;;;;;;957966;148;27239;-76
2022/03/30 11:52:14;;;;;;;15.27;12.67;;;15.40;63.40;;;;;;957873;148;27457;-78
2022/03/30 11:54:50;;;;;;;15.00;13.50;;;15.50;63.50;;;;;;957903;148;27363;-76
2022/03/30 11:57:14;;;;;;;17.20;14.13;;;15.50;63.20;;;;;;959477;148;27840;-75
2022/03/30 11:59:40;;;;;;;15.32;13.70;;;15.50;63.10;;;;;;959387;148;27300;-76
2022/03/30 12:02:07;;;;;;;15.07;13.47;;;15.50;62.90;;;;;;960459;148;27235;-76
2022/03/30 12:04:33;;;;;;;14.63;13.13;;;15.60;62.80;;;;;;959786;148;27331;-75
2022/03/30 12:07:00;;;;;;;13.80;12.27;;;15.60;62.70;;;;;;959597;148;27318;-76
2022/03/30 12:09:27;;;;;;;14.33;12.03;;;15.60;62.60;;;;;;960288;148;27381;-76
2022/03/30 12:11:54;;;;;;;14.13;12.63;;;15.60;62.60;;;;;;959393;148;27286;-76
2022/03/30 12:14:26;;;;;;;13.77;12.37;;;15.60;62.70;;;;;;959829;148;27383;-75
2022/03/30 12:16:52;;;;;;;15.47;13.23;;;15.70;62.60;;;;;;959551;148;27270;-78
2022/03/30 12:19:19;;;;;;;14.37;12.87;;;15.70;62.40;;;;;;960286;148;27418;-76
2022/03/30 12:21:45;;;;;;;15.03;13.43;;;15.70;62.30;;;;;;956829;146;28313;-76
2022/03/30 12:24:16;;;;;;;15.07;13.47;;;15.70;62.30;;;;;;950714;146;27411;-76
2022/03/30 12:26:39;;;;;;;14.90;12.97;;;15.60;62.30;;;;;;950273;149;27299;-75
2022/03/30 12:29:08;;;;;;;13.70;12.27;;;15.60;62.30;;;;;;950913;148;27290;-77
2022/03/30 12:31:34;;;;;;;14.40;12.33;;;15.60;62.30;;;;;;951439;150;27311;-75
2022/03/30 12:34:01;;;;;;;13.27;11.87;;;15.60;62.20;;;;;;951648;148;27276;-76
2022/03/30 12:36:27;;;;;;;12.75;11.45;;;15.60;62.10;;;;;;949000;147;27297;-76
2022/03/30 12:38:54;;;;;;;12.43;11.13;;;15.60;62.00;;;;;;949641;147;27291;-78
2022/03/30 12:41:26;;;;;;;12.33;11.00;;;15.60;61.90;;;;;;951838;146;27331;-76
2022/03/30 12:43:59;;;;;;;12.77;11.47;;;15.60;61.90;;;;;;951218;150;27280;-76
2022/03/30 12:46:26;;;;;;;12.07;10.83;;;15.60;61.80;;;;;;950415;147;27285;-76
2022/03/30 12:48:52;;;;;;;10.27;9.27;;;15.60;61.80;;;;;;951892;148;27253;-76
2022/03/30 12:51:19;;;;;;;11.30;10.20;;;15.60;61.70;;;;;;950616;150;27351;-75